Time;durP1;ratioP1;P1;durP2;ratioP2;P2;SDS_P1;SDS_P2;PMS_P1;PMS_P2;Temp;Humidity;BMP_temperature;BMP_pressure;BME280_temperature;BME280_humidity;BME280_pressure;Samples;Min_cycle;Max_cycle;Signal;HPM_P1;HPM_P2
2023/05/28 00:01:33;;;;;;;2.70;1.08;;;15.90;56.40;;;;;;6142262;23;20024;-80
2023/05/28 00:04:00;;;;;;;4.63;1.42;;;15.90;56.50;;;;;;6166892;23;20055;-80
2023/05/28 00:06:27;;;;;;;4.32;1.25;;;15.80;56.70;;;;;;6189159;23;20028;-80
2023/05/28 00:08:55;;;;;;;5.20;1.40;;;15.70;56.90;;;;;;6164715;23;20024;-80
2023/05/28 00:11:23;;;;;;;4.03;1.60;;;15.70;57.20;;;;;;6164565;23;20067;-81
2023/05/28 00:13:50;;;;;;;5.15;1.80;;;15.60;57.40;;;;;;6164196;23;20051;-80
2023/05/28 00:16:17;;;;;;;5.70;2.15;;;15.60;57.90;;;;;;6189118;23;20024;-80
2023/05/28 00:18:44;;;;;;;3.65;1.42;;;15.60;58.00;;;;;;6164542;23;20353;-80
2023/05/28 00:21:11;;;;;;;5.45;1.92;;;15.50;58.20;;;;;;6188740;23;20390;-80
2023/05/28 00:23:38;;;;;;;4.03;1.40;;;15.40;58.60;;;;;;6213828;23;20027;-80
2023/05/28 00:26:06;;;;;;;3.88;1.13;;;15.40;58.70;;;;;;6164426;23;20028;-80
2023/05/28 00:28:33;;;;;;;4.82;1.55;;;15.30;58.90;;;;;;6164263;23;20020;-80
2023/05/28 00:31:01;;;;;;;3.83;1.20;;;15.30;59.30;;;;;;6164363;23;20016;-80
2023/05/28 00:33:28;;;;;;;5.20;1.50;;;15.20;59.50;;;;;;6164904;23;20068;-80
2023/05/28 00:35:55;;;;;;;5.53;1.83;;;15.20;59.70;;;;;;6164689;23;20355;-85
2023/05/28 00:38:24;;;;;;;6.05;1.70;;;15.20;59.90;;;;;;6164854;23;20028;-84
2023/05/28 00:40:54;;;;;;;5.32;1.88;;;15.20;60.10;;;;;;6189103;23;20021;-84
2023/05/28 00:43:22;;;;;;;5.22;1.60;;;15.10;60.40;;;;;;6166004;23;20020;-81
2023/05/28 00:45:50;;;;;;;5.28;1.48;;;15.10;60.50;;;;;;6188631;23;20016;-81
2023/05/28 00:48:18;;;;;;;5.53;1.85;;;15.10;60.60;;;;;;6188603;23;20103;-80
2023/05/28 00:50:46;;;;;;;4.25;1.50;;;15.10;60.70;;;;;;6188209;23;20071;-81
2023/05/28 00:53:13;;;;;;;6.55;1.77;;;15.00;60.90;;;;;;6164144;23;20040;-80
2023/05/28 00:55:43;;;;;;;6.00;1.95;;;15.00;61.20;;;;;;6139734;23;20024;-80
2023/05/28 00:58:11;;;;;;;6.45;1.80;;;15.00;61.60;;;;;;6165237;23;20467;-80
2023/05/28 01:00:42;;;;;;;5.90;1.77;;;15.00;61.70;;;;;;6213121;23;20039;-80
2023/05/28 01:03:09;;;;;;;5.27;1.80;;;15.00;62.10;;;;;;6165147;23;20024;-80
2023/05/28 01:05:37;;;;;;;5.88;1.70;;;14.90;62.20;;;;;;6188711;23;20279;-81
2023/05/28 01:08:09;;;;;;;8.02;2.35;;;14.90;62.30;;;;;;6163886;23;20455;-80
2023/05/28 01:10:38;;;;;;;6.72;1.70;;;14.90;62.80;;;;;;6189694;23;20020;-80
2023/05/28 01:13:07;;;;;;;5.40;1.98;;;14.80;63.10;;;;;;6188623;23;20023;-80
2023/05/28 01:15:35;;;;;;;7.65;2.13;;;14.80;63.60;;;;;;6188543;23;20100;-80
2023/05/28 01:18:04;;;;;;;5.90;1.75;;;14.70;63.80;;;;;;6164329;23;20021;-80
2023/05/28 01:20:32;;;;;;;5.55;1.42;;;14.70;64.00;;;;;;6164108;23;20032;-80
2023/05/28 01:23:11;;;;;;;8.88;1.70;;;14.60;64.30;;;;;;6188809;23;20027;-80
2023/05/28 01:25:39;;;;;;;3.80;1.80;;;14.60;64.60;;;;;;6188876;23;20020;-80
2023/05/28 01:28:13;;;;;;;5.45;2.03;;;14.60;64.60;;;;;;6163826;23;20021;-80
2023/05/28 01:30:41;;;;;;;4.85;2.03;;;14.60;64.80;;;;;;6163923;23;20676;-80
2023/05/28 01:33:08;;;;;;;8.05;2.28;;;14.50;64.80;;;;;;6163727;23;20027;-80
2023/05/28 01:35:39;;;;;;;9.13;2.38;;;14.50;65.30;;;;;;6164694;23;20104;-80
2023/05/28 01:38:08;;;;;;;6.45;2.08;;;14.50;65.50;;;;;;6163591;23;20078;-79
2023/05/28 01:40:38;;;;;;;6.85;2.45;;;14.50;66.00;;;;;;6213083;23;20051;-80
2023/05/28 01:43:07;;;;;;;5.88;2.38;;;14.40;66.30;;;;;;6164392;23;20415;-80
2023/05/28 01:45:39;;;;;;;7.50;2.30;;;14.40;66.30;;;;;;6189189;23;20032;-80
2023/05/28 01:48:07;;;;;;;4.22;1.58;;;14.30;66.30;;;;;;6213504;23;20386;-80
2023/05/28 01:50:34;;;;;;;6.30;1.52;;;14.30;66.50;;;;;;6165555;23;20392;-80
2023/05/28 01:53:01;;;;;;;6.50;1.73;;;14.30;66.50;;;;;;6166297;23;20041;-80
2023/05/28 01:55:29;;;;;;;6.32;2.10;;;14.30;66.70;;;;;;6165898;23;20027;-80
2023/05/28 01:57:59;;;;;;;6.45;2.10;;;14.30;66.80;;;;;;6167082;23;20063;-80
2023/05/28 02:00:27;;;;;;;4.97;1.70;;;14.30;66.90;;;;;;6190577;23;20020;-80
2023/05/28 02:02:54;;;;;;;5.43;1.85;;;14.30;66.90;;;;;;6190378;23;20095;-79
2023/05/28 02:05:21;;;;;;;4.78;1.83;;;14.30;67.30;;;;;;6165792;23;20487;-80
2023/05/28 02:07:48;;;;;;;5.50;1.80;;;14.30;67.00;;;;;;6165661;23;20485;-80
2023/05/28 02:10:15;;;;;;;4.10;1.65;;;14.20;67.10;;;;;;6165597;23;20017;-80
2023/05/28 02:12:43;;;;;;;5.93;1.23;;;14.20;67.30;;;;;;6166141;23;20028;-80
2023/05/28 02:15:11;;;;;;;4.13;1.50;;;14.20;67.40;;;;;;6190780;23;20024;-80
2023/05/28 02:17:43;;;;;;;4.97;1.60;;;14.10;67.50;;;;;;6167565;23;20020;-80
2023/05/28 02:20:11;;;;;;;3.80;1.33;;;14.10;67.60;;;;;;6166272;23;20119;-79
2023/05/28 02:22:41;;;;;;;6.35;1.38;;;14.10;67.60;;;;;;6167129;23;20020;-79
2023/05/28 02:25:12;;;;;;;4.45;1.45;;;14.10;67.60;;;;;;6165711;23;20512;-79
2023/05/28 02:27:39;;;;;;;4.97;1.33;;;14.10;67.70;;;;;;6166597;23;20111;-80
2023/05/28 02:30:13;;;;;;;3.20;1.23;;;14.10;67.70;;;;;;6165438;23;20017;-80
2023/05/28 02:32:40;;;;;;;5.70;1.30;;;14.00;67.80;;;;;;6189927;23;20021;-79
2023/05/28 02:35:09;;;;;;;7.18;1.40;;;14.00;67.90;;;;;;6141131;23;20477;-79
2023/05/28 02:37:39;;;;;;;5.75;1.60;;;14.00;67.90;;;;;;6168031;23;20017;-80
2023/05/28 02:40:09;;;;;;;5.55;1.52;;;14.00;68.00;;;;;;6165845;23;20025;-79
2023/05/28 02:42:36;;;;;;;3.08;1.30;;;14.00;68.10;;;;;;6190031;23;20070;-79
2023/05/28 02:45:05;;;;;;;6.22;1.63;;;13.90;68.10;;;;;;6165418;23;20082;-79
2023/05/28 02:47:32;;;;;;;6.53;1.45;;;13.90;68.20;;;;;;6165512;23;20024;-79
2023/05/28 02:50:00;;;;;;;4.25;1.73;;;13.90;68.40;;;;;;6165225;23;20020;-79
2023/05/28 02:52:32;;;;;;;5.75;1.60;;;13.90;68.70;;;;;;6167290;23;20043;-79
2023/05/28 02:54:59;;;;;;;4.70;1.92;;;13.80;69.00;;;;;;6165434;23;20044;-79
2023/05/28 02:57:26;;;;;;;5.45;1.40;;;13.80;69.20;;;;;;6165131;23;20016;-80
2023/05/28 02:59:53;;;;;;;10.25;2.20;;;13.70;69.40;;;;;;6189433;23;20024;-80
2023/05/28 03:02:20;;;;;;;5.15;1.70;;;13.60;69.50;;;;;;6165186;23;20048;-80
2023/05/28 03:04:52;;;;;;;7.18;2.13;;;13.60;69.70;;;;;;6165107;23;20034;-80
2023/05/28 03:07:20;;;;;;;5.25;1.75;;;13.60;69.90;;;;;;6190643;23;20074;-80
2023/05/28 03:09:48;;;;;;;7.57;1.70;;;13.50;70.00;;;;;;6189587;23;20355;-80
2023/05/28 03:12:16;;;;;;;5.93;1.67;;;13.50;70.00;;;;;;6141786;23;20020;-80
2023/05/28 03:14:43;;;;;;;5.60;1.50;;;13.50;70.10;;;;;;6164880;23;20016;-80
2023/05/28 03:17:10;;;;;;;4.10;1.60;;;13.50;70.10;;;;;;6189522;23;20021;-80
2023/05/28 03:19:38;;;;;;;5.60;1.83;;;13.50;70.20;;;;;;6164488;23;20020;-80
2023/05/28 03:22:07;;;;;;;5.20;1.58;;;13.50;70.30;;;;;;6164747;23;20444;-80
2023/05/28 03:24:39;;;;;;;6.05;1.70;;;13.50;70.40;;;;;;6167236;23;20470;-80
2023/05/28 03:27:10;;;;;;;2.95;1.50;;;13.50;70.50;;;;;;6142776;23;20024;-80
2023/05/28 03:29:37;;;;;;;6.07;1.60;;;13.50;70.60;;;;;;6164742;23;20514;-79
2023/05/28 03:32:13;;;;;;;5.32;1.35;;;13.50;70.70;;;;;;6191411;23;20078;-80
2023/05/28 03:34:40;;;;;;;6.05;2.20;;;13.50;70.70;;;;;;6164580;23;20021;-80
2023/05/28 03:37:07;;;;;;;6.07;1.77;;;13.40;70.80;;;;;;6189641;23;20017;-80
2023/05/28 03:39:36;;;;;;;11.27;2.60;;;13.40;70.90;;;;;;6165295;23;20028;-80
2023/05/28 03:42:05;;;;;;;6.68;2.15;;;13.40;71.10;;;;;;6164606;23;20031;-80
2023/05/28 03:44:34;;;;;;;3.97;1.40;;;13.40;71.20;;;;;;6165666;23;20536;-84
2023/05/28 03:47:01;;;;;;;5.32;1.85;;;13.40;71.30;;;;;;6164722;23;20020;-84
2023/05/28 03:49:28;;;;;;;5.90;1.85;;;13.40;71.40;;;;;;6164767;23;20020;-84
2023/05/28 03:51:57;;;;;;;9.18;1.88;;;13.40;71.40;;;;;;6165125;23;20017;-84
2023/05/28 03:54:28;;;;;;;6.47;1.83;;;13.40;71.50;;;;;;6166605;23;20025;-84
2023/05/28 03:56:56;;;;;;;6.65;1.60;;;13.40;71.50;;;;;;6165069;23;20048;-84
2023/05/28 03:59:23;;;;;;;5.65;1.45;;;13.50;71.50;;;;;;6189064;23;20020;-84
2023/05/28 04:01:53;;;;;;;5.75;1.80;;;13.50;71.40;;;;;;6189814;23;20021;-83
2023/05/28 04:04:21;;;;;;;6.10;1.90;;;13.50;71.40;;;;;;6164694;23;20067;-82
2023/05/28 04:06:48;;;;;;;5.97;2.25;;;13.60;71.40;;;;;;6164612;23;20459;-83
2023/05/28 04:09:16;;;;;;;8.15;1.95;;;13.60;71.30;;;;;;6164195;23;20016;-85
2023/05/28 04:11:43;;;;;;;5.65;2.17;;;13.70;71.40;;;;;;6163595;23;20020;-84
2023/05/28 04:14:13;;;;;;;6.82;1.63;;;13.70;71.30;;;;;;6165251;23;20021;-84
2023/05/28 04:16:40;;;;;;;6.20;1.90;;;13.70;71.20;;;;;;6139768;23;20091;-84
2023/05/28 04:19:08;;;;;;;4.45;1.40;;;13.80;71.30;;;;;;6188998;23;20039;-84
2023/05/28 04:21:36;;;;;;;4.35;1.55;;;13.80;71.40;;;;;;6189038;23;20020;-84
2023/05/28 04:24:04;;;;;;;6.88;1.50;;;13.80;71.30;;;;;;6165304;23;20044;-83
2023/05/28 04:26:34;;;;;;;4.53;1.40;;;13.90;71.30;;;;;;6189498;23;20020;-83
2023/05/28 04:29:01;;;;;;;3.20;1.42;;;13.90;71.30;;;;;;6188884;23;20074;-84
2023/05/28 04:31:29;;;;;;;3.10;1.00;;;13.90;71.20;;;;;;6189053;23;20135;-83
2023/05/28 04:33:57;;;;;;;6.57;1.65;;;13.90;71.30;;;;;;6188681;23;20091;-84
2023/05/28 04:36:29;;;;;;;4.43;1.83;;;13.90;71.40;;;;;;6164014;23;20111;-83
2023/05/28 04:39:00;;;;;;;4.40;1.55;;;13.90;71.40;;;;;;6166196;23;20020;-84
2023/05/28 04:41:28;;;;;;;4.18;1.98;;;13.90;71.40;;;;;;6166366;23;20029;-83
2023/05/28 04:43:57;;;;;;;5.05;1.50;;;13.90;71.40;;;;;;6189137;23;20021;-83
2023/05/28 04:46:25;;;;;;;6.20;2.10;;;13.90;71.40;;;;;;6164197;23;20455;-84
2023/05/28 04:48:52;;;;;;;5.75;1.65;;;13.90;71.50;;;;;;6188747;23;20036;-83
2023/05/28 04:51:20;;;;;;;5.10;1.45;;;14.00;71.50;;;;;;6139824;23;20016;-84
2023/05/28 04:53:48;;;;;;;4.55;1.55;;;14.00;72.10;;;;;;6189074;23;20095;-84
2023/05/28 04:56:17;;;;;;;5.43;1.73;;;14.00;71.40;;;;;;6164329;23;20513;-84
2023/05/28 04:58:46;;;;;;;10.40;2.08;;;14.00;71.40;;;;;;6164260;23;20107;-84
2023/05/28 05:01:14;;;;;;;4.88;1.70;;;14.10;71.40;;;;;;6213345;23;20040;-83
2023/05/28 05:03:43;;;;;;;8.18;2.08;;;14.10;71.70;;;;;;6189250;23;20024;-83
2023/05/28 05:06:11;;;;;;;7.05;2.25;;;14.10;71.70;;;;;;6163980;23;20039;-83
2023/05/28 05:08:38;;;;;;;6.45;3.33;;;14.00;71.80;;;;;;6164036;23;20024;-83
2023/05/28 05:11:06;;;;;;;7.32;2.72;;;14.00;71.90;;;;;;6163449;23;20071;-83
2023/05/28 05:13:33;;;;;;;5.85;2.30;;;14.00;72.50;;;;;;6188335;23;20450;-83
2023/05/28 05:16:01;;;;;;;6.10;2.28;;;14.10;71.90;;;;;;6188436;23;20017;-83
2023/05/28 05:18:28;;;;;;;4.63;1.70;;;14.20;71.70;;;;;;6188763;23;20032;-83
2023/05/28 05:20:58;;;;;;;9.25;1.70;;;14.30;71.50;;;;;;6213235;23;20020;-83
2023/05/28 05:23:27;;;;;;;4.10;1.50;;;14.40;71.40;;;;;;6166181;23;20336;-83
2023/05/28 05:25:54;;;;;;;4.10;1.70;;;14.50;71.20;;;;;;6190316;23;20051;-83
2023/05/28 05:28:21;;;;;;;5.25;1.83;;;14.50;71.20;;;;;;6190806;23;20031;-83
2023/05/28 05:30:49;;;;;;;4.25;1.60;;;14.60;71.10;;;;;;6190695;23;20023;-83
2023/05/28 05:33:16;;;;;;;7.10;2.33;;;14.70;71.00;;;;;;6166630;23;20017;-84
2023/05/28 05:36:02;;;;;;;5.13;1.88;;;14.80;70.90;;;;;;6173779;23;20118;-83
2023/05/28 05:38:45;;;;;;;4.68;1.70;;;14.80;70.70;;;;;;6171111;23;20024;-84
2023/05/28 05:41:31;;;;;;;9.88;2.30;;;14.90;70.50;;;;;;6195070;23;20083;-83
2023/05/28 05:44:24;;;;;;;9.07;2.17;;;15.00;71.10;;;;;;6190670;23;20024;-82
2023/05/28 05:46:51;;;;;;;9.88;2.60;;;15.00;70.40;;;;;;6166259;23;20020;-84
2023/05/28 05:49:20;;;;;;;5.80;1.77;;;15.10;70.30;;;;;;6190596;23;20024;-83
2023/05/28 05:51:47;;;;;;;7.38;2.40;;;15.20;70.20;;;;;;6165615;23;20016;-83
2023/05/28 05:54:14;;;;;;;6.25;2.60;;;15.30;70.10;;;;;;6166031;23;20013;-82
2023/05/28 05:56:43;;;;;;;5.97;2.50;;;15.30;70.00;;;;;;6166116;23;20024;-82
2023/05/28 05:59:11;;;;;;;5.53;2.17;;;15.30;69.90;;;;;;6166367;23;20021;-82
2023/05/28 06:01:38;;;;;;;4.22;1.52;;;15.30;70.00;;;;;;6165902;23;20032;-82
2023/05/28 06:04:06;;;;;;;6.55;2.03;;;15.30;69.90;;;;;;6166104;23;20030;-82
2023/05/28 06:07:06;;;;;;;5.20;1.60;;;15.40;70.00;;;;;;6196725;23;20017;-81
2023/05/28 06:09:43;;;;;;;6.72;2.13;;;15.40;69.90;;;;;;6215408;23;20025;-82
2023/05/28 06:12:16;;;;;;;4.93;1.25;;;15.50;69.80;;;;;;6168335;23;20027;-84
2023/05/28 06:14:44;;;;;;;3.97;1.60;;;15.60;69.70;;;;;;6165732;23;20021;-84
2023/05/28 06:17:11;;;;;;;4.43;1.70;;;15.60;69.50;;;;;;6141703;23;20434;-84
2023/05/28 06:19:39;;;;;;;5.55;1.88;;;15.70;69.40;;;;;;6190264;23;20021;-85
2023/05/28 06:22:07;;;;;;;3.40;1.45;;;15.80;69.20;;;;;;6165941;23;20025;-84
2023/05/28 06:24:36;;;;;;;4.28;1.55;;;15.80;69.10;;;;;;6166561;23;20016;-83
2023/05/28 06:27:03;;;;;;;6.93;2.20;;;15.90;69.10;;;;;;6165860;23;20027;-85
2023/05/28 06:29:30;;;;;;;3.13;1.40;;;15.80;69.10;;;;;;6190376;23;20792;-85
2023/05/28 06:31:57;;;;;;;4.53;1.60;;;15.80;69.20;;;;;;6165526;23;20107;-83
2023/05/28 06:34:25;;;;;;;5.22;1.60;;;15.90;69.30;;;;;;6165083;23;20021;-80
2023/05/28 06:36:52;;;;;;;6.57;1.40;;;15.80;69.40;;;;;;6165727;23;20016;-82
2023/05/28 06:39:20;;;;;;;2.83;1.20;;;15.80;69.50;;;;;;6165404;23;20025;-79
2023/05/28 06:41:48;;;;;;;5.57;1.50;;;15.80;69.50;;;;;;6141989;23;20025;-79
2023/05/28 06:44:24;;;;;;;6.38;2.28;;;15.80;69.50;;;;;;6168504;23;20070;-80
2023/05/28 06:46:56;;;;;;;6.40;1.60;;;15.80;69.60;;;;;;6144103;23;20021;-80
2023/05/28 06:49:23;;;;;;;6.57;1.58;;;15.70;69.70;;;;;;6189611;23;20024;-80
2023/05/28 06:51:51;;;;;;;7.93;2.05;;;15.70;69.80;;;;;;6213999;23;20051;-80
2023/05/28 06:54:18;;;;;;;5.68;1.92;;;15.70;70.00;;;;;;6165293;23;20024;-80
2023/05/28 06:56:45;;;;;;;3.30;1.33;;;15.70;70.00;;;;;;6189438;23;20020;-80
2023/05/28 06:59:33;;;;;;;4.05;1.67;;;15.70;70.00;;;;;;6129118;23;20025;-80
2023/05/28 07:02:06;;;;;;;5.40;1.60;;;15.70;70.00;;;;;;6168937;23;20028;-80
2023/05/28 07:04:33;;;;;;;4.68;1.38;;;15.70;69.90;;;;;;6166191;23;20083;-80
2023/05/28 07:07:11;;;;;;;5.35;1.98;;;15.90;69.60;;;;;;6214556;23;20028;-80
2023/05/28 07:09:39;;;;;;;5.43;2.08;;;16.20;69.20;;;;;;6165053;23;20055;-79
2023/05/28 07:12:09;;;;;;;7.88;2.20;;;16.30;68.80;;;;;;6190209;23;20013;-80
2023/05/28 07:14:41;;;;;;;5.72;1.77;;;16.60;68.60;;;;;;6167339;23;20042;-80
2023/05/28 07:17:10;;;;;;;4.03;1.67;;;16.80;68.10;;;;;;6189566;23;20025;-80
2023/05/28 07:19:43;;;;;;;8.07;1.83;;;17.00;67.70;;;;;;6214079;23;20095;-80
2023/05/28 07:22:13;;;;;;;6.72;1.77;;;17.20;67.40;;;;;;6189673;23;20351;-80
2023/05/28 07:24:40;;;;;;;6.40;1.42;;;17.40;67.10;;;;;;6166578;23;20024;-83
2023/05/28 07:27:08;;;;;;;6.53;1.45;;;17.50;66.70;;;;;;6189703;23;20051;-83
2023/05/28 07:29:36;;;;;;;4.68;1.75;;;17.70;66.50;;;;;;6189514;23;20021;-83
2023/05/28 07:32:03;;;;;;;2.60;1.15;;;17.90;66.20;;;;;;6165023;23;20099;-83
2023/05/28 07:34:35;;;;;;;3.50;1.10;;;18.00;65.90;;;;;;6214251;23;20017;-83
2023/05/28 07:37:04;;;;;;;3.25;1.15;;;18.20;65.50;;;;;;6141351;23;20020;-84
2023/05/28 07:39:31;;;;;;;2.97;1.15;;;18.40;65.30;;;;;;6189049;23;20189;-83
2023/05/28 07:41:58;;;;;;;3.50;1.00;;;18.50;65.00;;;;;;6189368;23;20024;-84
2023/05/28 07:44:32;;;;;;;3.00;1.00;;;18.70;64.70;;;;;;6167701;23;20024;-83
2023/05/28 07:46:59;;;;;;;2.53;0.80;;;18.90;64.50;;;;;;6164775;23;20110;-83
2023/05/28 07:49:44;;;;;;;3.60;0.82;;;19.00;64.10;;;;;;6172794;23;20079;-83
2023/05/28 07:52:14;;;;;;;3.78;0.90;;;19.30;63.70;;;;;;6189775;23;20367;-83
2023/05/28 07:54:42;;;;;;;3.75;1.23;;;19.40;63.30;;;;;;6165160;23;20017;-83
2023/05/28 07:57:14;;;;;;;4.13;1.50;;;19.60;63.00;;;;;;6166320;23;20104;-82
2023/05/28 07:59:43;;;;;;;2.40;0.65;;;19.70;62.50;;;;;;6189596;23;20020;-83
2023/05/28 08:02:11;;;;;;;3.47;1.10;;;19.90;62.30;;;;;;6189437;23;20356;-83
2023/05/28 08:04:38;;;;;;;4.25;0.85;;;20.00;62.10;;;;;;6164861;23;20351;-83
2023/05/28 08:07:06;;;;;;;3.55;1.15;;;20.20;61.70;;;;;;6164669;23;20048;-83
2023/05/28 08:09:33;;;;;;;2.75;0.93;;;20.20;61.30;;;;;;6189234;23;20068;-83
2023/05/28 08:12:01;;;;;;;3.00;0.90;;;20.30;61.00;;;;;;6164843;23;20451;-83
2023/05/28 08:14:31;;;;;;;3.53;0.90;;;20.50;60.70;;;;;;6189648;23;20475;-83
2023/05/28 08:17:04;;;;;;;3.80;1.02;;;20.60;60.30;;;;;;6166859;23;20020;-83
2023/05/28 08:19:33;;;;;;;3.22;1.15;;;20.80;60.10;;;;;;6190019;23;20028;-83
2023/05/28 08:22:04;;;;;;;4.32;1.35;;;20.90;59.70;;;;;;6165923;23;20035;-83
2023/05/28 08:24:33;;;;;;;3.75;0.90;;;21.00;59.40;;;;;;6189236;23;20024;-83
2023/05/28 08:27:01;;;;;;;1.80;0.80;;;21.10;59.20;;;;;;6189002;23;20020;-83
2023/05/28 08:29:28;;;;;;;2.60;0.82;;;21.10;58.90;;;;;;6164350;23;20044;-82
2023/05/28 08:32:01;;;;;;;3.22;0.95;;;21.20;58.70;;;;;;6190074;23;20024;-83
2023/05/28 08:34:34;;;;;;;2.30;0.80;;;21.20;58.50;;;;;;6213617;23;20485;-83
2023/05/28 08:37:03;;;;;;;3.38;0.80;;;21.20;58.50;;;;;;6189220;23;20024;-79
2023/05/28 08:39:38;;;;;;;4.47;1.15;;;21.30;58.30;;;;;;6190436;23;20103;-80
2023/05/28 08:42:06;;;;;;;4.28;0.80;;;21.30;58.10;;;;;;6164739;23;20034;-80
2023/05/28 08:44:34;;;;;;;3.42;1.20;;;21.30;57.80;;;;;;6188945;23;20537;-80
2023/05/28 08:47:02;;;;;;;3.75;1.05;;;21.40;57.60;;;;;;6188974;23;20031;-79
2023/05/28 08:49:41;;;;;;;3.63;1.48;;;21.50;57.40;;;;;;6166153;23;20023;-80
2023/05/28 08:52:12;;;;;;;2.28;0.80;;;21.50;57.20;;;;;;6189180;23;20040;-79
2023/05/28 08:54:41;;;;;;;3.42;0.77;;;21.60;57.10;;;;;;6213787;23;20021;-79
2023/05/28 08:57:12;;;;;;;2.63;0.80;;;21.70;56.90;;;;;;6188770;23;20026;-80
2023/05/28 08:59:50;;;;;;;4.15;1.40;;;21.80;56.60;;;;;;6191128;23;20019;-79
2023/05/28 09:02:17;;;;;;;4.38;1.13;;;21.80;56.10;;;;;;6164710;23;20083;-80
2023/05/28 09:04:46;;;;;;;4.07;1.35;;;21.90;56.10;;;;;;6164611;23;20021;-80
2023/05/28 09:07:14;;;;;;;2.42;0.95;;;21.90;55.90;;;;;;6140618;23;20095;-80
2023/05/28 09:10:03;;;;;;;3.90;1.08;;;22.00;55.80;;;;;;6172491;23;20527;-78
2023/05/28 09:12:34;;;;;;;3.13;1.00;;;22.00;55.80;;;;;;6189129;23;20016;-79
2023/05/28 09:15:04;;;;;;;3.75;1.30;;;22.00;55.60;;;;;;6165212;23;20111;-79
2023/05/28 09:17:36;;;;;;;3.92;1.30;;;22.10;55.50;;;;;;6164170;23;20021;-79
2023/05/28 09:20:12;;;;;;;3.17;0.85;;;22.10;55.40;;;;;;6190098;23;20082;-79
2023/05/28 09:22:43;;;;;;;5.15;1.13;;;22.30;55.30;;;;;;6188798;23;20469;-79
2023/05/28 09:25:24;;;;;;;3.15;1.10;;;22.40;54.90;;;;;;6190727;23;20071;-79
2023/05/28 09:28:13;;;;;;;5.50;1.73;;;22.40;54.80;;;;;;6212384;23;20352;-79
2023/05/28 09:30:41;;;;;;;3.83;1.50;;;22.50;54.60;;;;;;6163936;23;20020;-79
2023/05/28 09:33:09;;;;;;;4.38;1.27;;;22.50;54.40;;;;;;6139487;23;20423;-79
2023/05/28 09:35:36;;;;;;;2.83;1.10;;;22.60;54.40;;;;;;6188437;23;20020;-79
2023/05/28 09:38:07;;;;;;;3.33;1.27;;;22.80;54.10;;;;;;6188341;23;20031;-80
2023/05/28 09:40:39;;;;;;;2.58;1.10;;;22.90;53.70;;;;;;6164142;23;20021;-79
2023/05/28 09:43:07;;;;;;;3.83;1.13;;;23.00;53.50;;;;;;6164018;23;20432;-78
2023/05/28 09:45:35;;;;;;;3.70;1.30;;;23.00;53.30;;;;;;6188582;23;20079;-80
2023/05/28 09:48:02;;;;;;;4.35;1.25;;;23.10;53.20;;;;;;6213162;23;20024;-79
2023/05/28 09:50:29;;;;;;;3.88;1.20;;;23.10;53.00;;;;;;6213300;23;20059;-79
2023/05/28 09:52:58;;;;;;;2.45;0.82;;;23.10;52.80;;;;;;6213220;23;20462;-79
2023/05/28 09:55:27;;;;;;;3.90;1.58;;;23.10;52.80;;;;;;6188479;23;20087;-80
2023/05/28 09:58:02;;;;;;;5.75;2.10;;;23.00;52.60;;;;;;6188941;23;20099;-79
2023/05/28 10:00:46;;;;;;;3.38;1.10;;;22.90;52.70;;;;;;6213762;23;20032;-80
2023/05/28 10:03:23;;;;;;;3.78;0.90;;;22.90;52.70;;;;;;6213453;23;20028;-80
2023/05/28 10:06:01;;;;;;;5.63;1.60;;;22.90;52.80;;;;;;6213324;23;20091;-80
2023/05/28 10:08:31;;;;;;;4.55;1.35;;;22.90;52.70;;;;;;6213431;23;20100;-80
2023/05/28 10:11:00;;;;;;;4.43;1.48;;;22.80;52.90;;;;;;6189821;23;20024;-80
2023/05/28 10:13:30;;;;;;;5.20;1.25;;;22.70;53.20;;;;;;6190774;23;20099;-79
2023/05/28 10:15:58;;;;;;;5.68;1.80;;;22.80;53.20;;;;;;6190005;23;20028;-80
2023/05/28 10:18:26;;;;;;;5.50;1.58;;;22.70;53.10;;;;;;6190405;23;20091;-80
2023/05/28 10:20:53;;;;;;;4.75;1.98;;;22.60;53.30;;;;;;6190306;23;20509;-80
2023/05/28 10:23:23;;;;;;;4.45;1.38;;;22.50;53.40;;;;;;6165799;23;20021;-80
2023/05/28 10:25:51;;;;;;;3.88;1.40;;;22.40;53.60;;;;;;6189992;23;20023;-80
2023/05/28 10:28:21;;;;;;;4.40;1.20;;;22.20;53.70;;;;;;6165575;23;20025;-79
2023/05/28 10:31:03;;;;;;;2.47;1.27;;;22.20;53.80;;;;;;6192032;23;20044;-79
2023/05/28 10:33:30;;;;;;;6.25;2.63;;;22.30;53.70;;;;;;6215116;23;20092;-79
2023/05/28 10:36:02;;;;;;;4.47;1.42;;;22.40;53.60;;;;;;6190236;23;20020;-78
2023/05/28 10:38:30;;;;;;;5.50;1.70;;;22.50;53.40;;;;;;6189870;23;20108;-80
2023/05/28 10:41:03;;;;;;;3.53;1.40;;;22.60;53.30;;;;;;6165342;23;20024;-80
2023/05/28 10:43:46;;;;;;;3.92;1.30;;;22.80;53.10;;;;;;6190814;23;20043;-80
2023/05/28 10:46:25;;;;;;;3.45;1.30;;;23.00;52.80;;;;;;6215105;23;20028;-80
2023/05/28 10:49:14;;;;;;;4.05;1.35;;;23.20;52.50;;;;;;6190180;23;20359;-80
2023/05/28 10:52:00;;;;;;;4.45;1.42;;;23.40;52.30;;;;;;6189806;23;20469;-78
2023/05/28 10:54:45;;;;;;;4.15;1.52;;;23.50;52.10;;;;;;6215059;23;20394;-81
2023/05/28 10:57:41;;;;;;;5.88;1.60;;;23.50;52.00;;;;;;6214824;23;20016;-81
2023/05/28 11:00:13;;;;;;;4.78;1.30;;;23.50;52.00;;;;;;6184206;23;20024;-80
2023/05/28 11:02:42;;;;;;;;;;;23.40;52.00;;;;;;6191119;23;20029;-79
2023/05/28 11:05:10;;;;;;;2.95;1.45;;;23.40;52.30;;;;;;6214801;23;20392;-80
2023/05/28 11:07:39;;;;;;;4.50;1.38;;;23.40;52.30;;;;;;6214542;23;20336;-80
2023/05/28 11:10:08;;;;;;;4.05;1.63;;;23.40;52.10;;;;;;6214681;23;20103;-83
2023/05/28 11:12:42;;;;;;;;;;;23.40;52.00;;;;;;6143399;23;20048;-86
2023/05/28 11:15:14;;;;;;;4.60;1.40;;;23.40;52.20;;;;;;6215020;23;19916;-85
2023/05/28 11:17:45;;;;;;;3.47;1.10;;;23.50;52.10;;;;;;6190801;23;20024;-86
2023/05/28 11:20:19;;;;;;;5.32;1.58;;;23.50;51.90;;;;;;6214822;23;20066;-84
2023/05/28 11:22:47;;;;;;;4.50;1.40;;;23.50;52.00;;;;;;6189704;23;20097;-84
2023/05/28 11:25:25;;;;;;;5.22;1.30;;;23.50;52.00;;;;;;6189758;23;20435;-84
2023/05/28 11:27:53;;;;;;;5.40;1.90;;;23.50;51.90;;;;;;6189530;23;20091;-85
2023/05/28 11:30:21;;;;;;;5.88;1.73;;;23.60;51.60;;;;;;6165098;23;20021;-82
2023/05/28 11:32:49;;;;;;;4.22;1.20;;;23.60;51.40;;;;;;6189516;23;20091;-83
2023/05/28 11:35:17;;;;;;;3.08;1.05;;;23.60;51.50;;;;;;6189417;23;20092;-82
2023/05/28 11:37:45;;;;;;;3.58;1.40;;;23.70;51.40;;;;;;6189428;23;20017;-83
2023/05/28 11:40:14;;;;;;;3.53;1.27;;;24.00;51.00;;;;;;6189206;23;20029;-83
2023/05/28 11:42:43;;;;;;;2.72;1.17;;;24.20;50.60;;;;;;6165434;23;20028;-82
2023/05/28 11:45:11;;;;;;;3.40;1.10;;;24.30;50.20;;;;;;6214434;23;20107;-82
2023/05/28 11:47:39;;;;;;;3.55;1.00;;;24.50;49.90;;;;;;6189989;23;20103;-83
2023/05/28 11:50:08;;;;;;;3.13;0.82;;;24.70;49.50;;;;;;6189655;23;20048;-82
2023/05/28 11:52:35;;;;;;;4.20;1.08;;;25.00;49.00;;;;;;6164871;23;20020;-78
2023/05/28 11:55:03;;;;;;;3.95;1.08;;;25.20;48.50;;;;;;6164996;23;20032;-83
2023/05/28 11:57:36;;;;;;;2.95;1.20;;;25.30;48.20;;;;;;6218637;23;20016;-84
2023/05/28 12:00:15;;;;;;;3.25;1.48;;;25.60;48.00;;;;;;6189339;23;20013;-85
2023/05/28 12:02:47;;;;;;;4.30;1.48;;;25.80;47.80;;;;;;6213737;23;20107;-87
2023/05/28 12:05:16;;;;;;;4.57;1.50;;;26.00;47.40;;;;;;6164838;23;20102;-83
2023/05/28 12:07:45;;;;;;;4.18;1.45;;;26.00;47.30;;;;;;6213481;23;20048;-82
2023/05/28 12:10:14;;;;;;;2.40;0.90;;;26.10;47.30;;;;;;6164099;23;20029;-83
2023/05/28 12:12:49;;;;;;;3.00;1.20;;;26.30;47.20;;;;;;6189022;23;20016;-80
2023/05/28 12:15:18;;;;;;;4.32;1.13;;;26.50;46.80;;;;;;6215329;23;20016;-80
2023/05/28 12:17:48;;;;;;;2.50;1.25;;;26.60;46.70;;;;;;6189115;23;20347;-82
2023/05/28 12:20:15;;;;;;;2.75;1.10;;;26.60;46.60;;;;;;6188894;23;20020;-83
2023/05/28 12:22:43;;;;;;;4.70;1.50;;;26.80;46.50;;;;;;6188956;23;20088;-83
2023/05/28 12:25:11;;;;;;;2.72;1.20;;;26.90;46.40;;;;;;6188911;23;20044;-83
2023/05/28 12:27:38;;;;;;;4.00;1.20;;;26.80;46.20;;;;;;6213816;23;20328;-81
2023/05/28 12:30:06;;;;;;;3.58;1.33;;;26.80;46.30;;;;;;6164451;23;20030;-80
2023/05/28 12:32:36;;;;;;;2.65;1.10;;;26.90;46.10;;;;;;6164262;23;20419;-80
2023/05/28 12:35:05;;;;;;;3.03;1.20;;;27.00;45.90;;;;;;6188854;23;20023;-82
2023/05/28 12:37:32;;;;;;;2.17;1.15;;;27.10;45.70;;;;;;6213853;23;20044;-80
2023/05/28 12:40:00;;;;;;;3.38;1.00;;;27.10;45.50;;;;;;6188674;23;20455;-82
2023/05/28 12:42:27;;;;;;;3.88;1.40;;;26.90;45.50;;;;;;6189109;23;20017;-82
2023/05/28 12:44:54;;;;;;;2.47;1.05;;;26.80;45.60;;;;;;6188915;23;20024;-82
2023/05/28 12:47:21;;;;;;;3.83;1.13;;;26.80;45.60;;;;;;6213678;23;20067;-82
2023/05/28 12:49:48;;;;;;;2.58;0.93;;;26.90;45.30;;;;;;6139959;23;20067;-82
2023/05/28 12:52:15;;;;;;;3.90;1.50;;;27.00;45.30;;;;;;6164035;23;20455;-86
2023/05/28 12:54:42;;;;;;;3.15;1.40;;;26.90;45.20;;;;;;6164459;23;20021;-81
2023/05/28 12:57:10;;;;;;;3.55;1.20;;;26.70;45.20;;;;;;6164353;23;20020;-84
2023/05/28 12:59:37;;;;;;;3.45;1.67;;;26.70;45.40;;;;;;6189049;23;20023;-80
2023/05/28 13:02:04;;;;;;;5.40;1.67;;;26.80;45.80;;;;;;6164283;23;20021;-79